Time;durP1;ratioP1;P1;durP2;ratioP2;P2;SDS_P1;SDS_P2;PMS_P1;PMS_P2;Temp;Humidity;BMP_temperature;BMP_pressure;BME280_temperature;BME280_humidity;BME280_pressure;Samples;Min_cycle;Max_cycle;Signal;HPM_P1;HPM_P2
2023/12/14 08:47:58;;;;;;;;;;;;;;;;;;6186070;22;20250;31
2023/12/14 08:50:26;;;;;;;;;;;;;;;;;;6127887;23;20221;-84
2023/12/14 08:52:51;;;;;;;;;;;;;;;;;;6148735;23;19919;-83
2023/12/14 08:55:16;;;;;;;;;;;;;;;;;;6157437;23;20236;-87
2023/12/14 08:57:42;;;;;;;;;;;;;;;;;;6131382;23;19908;-94
2023/12/14 09:00:07;;;;;;;;;;;;;;;;;;6133844;23;19919;-93
2023/12/14 09:02:33;;;;;;;;;;;;;;;;;;6133061;23;19909;-89
2023/12/14 09:30:39;;;;;;;;;;;;;;;;;;6247323;23;19915;-85
2023/12/14 09:33:05;;;;;;;;;;;;;;;;;;6247622;23;19908;-85
2023/12/14 09:35:31;;;;;;;;;;;;;;;;;;6247571;22;19912;-85
2023/12/14 09:37:56;;;;;;;;;;;;;;;;;;6247386;23;20280;-85
2023/12/14 09:40:22;;;;;;;;;;;;;;;;;;6247710;23;19978;-87
2023/12/14 09:42:48;;;;;;;;;;;;;;;;;;6220724;23;19914;-84
2023/12/14 09:45:13;;;;;;;;;;;;;;;;;;6247237;22;19978;-85
2023/12/14 09:47:38;;;;;;;;;;;;;;;;;;6247576;23;19935;-85
2023/12/14 09:50:05;;;;;;;;;;;;;;;;;;6247563;23;20341;-85
2023/12/14 09:52:30;;;;;;;;;;;;;;;;;;6247506;23;19961;-87
2023/12/14 09:54:56;;;;;;;;;;;;;;;;;;6247749;22;19907;-87
2023/12/14 09:57:21;;;;;;;;;;;;;;;;;;6247568;23;20017;-87
2023/12/14 09:59:53;;;;;;;;;;;;;;;;;;6247480;23;19908;-86
2023/12/14 10:02:19;;;;;;;;;;;;;;;;;;6220564;23;19962;-86
2023/12/14 10:04:44;;;;;;;;;;;;;;;;;;6247139;23;19911;-87
2023/12/14 10:07:09;;;;;;;;;;;;;;;;;;6247312;22;20219;-85
2023/12/14 10:09:36;;;;;;;;;;;;;;;;;;6247371;23;19951;-87
2023/12/14 10:12:05;;;;;;;;;;;;;;;;;;6247635;23;19908;-86
2023/12/14 10:14:30;;;;;;;;;;;;;;;;;;6247741;23;19908;-88
2023/12/14 10:16:55;;;;;;;;;;;;;;;;;;6247607;22;19930;-86
2023/12/14 10:19:21;;;;;;;;;;;;;;;;;;6247438;23;19914;-87
2023/12/14 10:21:47;;;;;;;;;;;;;;;;;;6246944;23;19907;-85
2023/12/14 10:24:15;;;;;;;;;;;;;;;;;;6246365;23;20283;-86
2023/12/14 10:26:41;;;;;;;;;;;;;;;;;;6246753;22;19908;-85
2023/12/14 10:29:06;;;;;;;;;;;;;;;;;;6246927;23;19912;-86
2023/12/14 10:31:31;;;;;;;;;;;;;;;;;;6246947;23;19912;-87
2023/12/14 10:33:57;;;;;;;;;;;;;;;;;;6247047;23;19912;-87
2023/12/14 10:36:24;;;;;;;;;;;;;;;;;;6247032;22;19963;-87
2023/12/14 10:38:52;;;;;;;;;;;;;;;;;;6247305;23;19931;-87
2023/12/14 10:41:18;;;;;;;;;;;;;;;;;;6220040;23;19930;-86
2023/12/14 10:43:44;;;;;;;;;;;;;;;;;;6219948;23;20306;-87
2023/12/14 10:46:09;;;;;;;;;;;;;;;;;;6246426;22;19911;-86
2023/12/14 10:48:39;;;;;;;;;;;;;;;;;;6219761;23;19914;-85
2023/12/14 10:51:05;;;;;;;;;;;;;;;;;;6221533;23;19903;-87
2023/12/14 10:53:32;;;;;;;;;;;;;;;;;;6248850;23;19954;-85
2023/12/14 10:55:59;;;;;;;;;;;;;;;;;;6248754;22;19990;-86
2023/12/14 10:58:24;;;;;;;;;;;;;;;;;;6248631;23;19934;-85
2023/12/14 11:01:00;;;;;;;;;;;;;;;;;;6248451;23;20323;-86
2023/12/14 11:03:26;;;;;;;;;;;;;;;;;;6248644;23;19910;-86
2023/12/14 11:05:51;;;;;;;;;;;;;;;;;;6248334;22;19938;-86
2023/12/14 11:08:17;;;;;;;;;;;;;;;;;;6248588;23;19907;-87
2023/12/14 11:10:51;;;;;;;;;;;;;;;;;;6248493;23;19954;-87
2023/12/14 11:13:17;;;;;;;;;;;;;;;;;;6248902;23;19908;-87
2023/12/14 11:15:51;;;;;;;;;;;;;;;;;;6248442;22;19908;-87
2023/12/14 11:18:20;;;;;;;;;;;;;;;;;;6248888;23;19909;-87
2023/12/14 11:20:45;;;;;;;;;;;;;;;;;;6221823;23;20288;-88
2023/12/14 11:23:13;;;;;;;;;;;;;;;;;;6249236;23;19935;-87
2023/12/14 11:25:39;;;;;;;;;;;;;;;;;;6248192;22;20314;-88
2023/12/14 11:28:06;;;;;;;;;;;;;;;;;;6248682;23;20319;-90
2023/12/14 11:30:31;;;;;;;;;;;;;;;;;;6248347;23;20011;-85
2023/12/14 11:32:57;;;;;;;;;;;;;;;;;;6248678;23;20310;-87
2023/12/14 11:35:22;;;;;;;;;;;;;;;;;;6248249;22;19997;-86
2023/12/14 11:37:47;;;;;;;;;;;;;;;;;;6248656;23;19962;-87
2023/12/14 11:40:16;;;;;;;;;;;;;;;;;;6248515;23;19930;-85
2023/12/14 11:42:41;;;;;;;;;;;;;;;;;;6248811;23;19912;-87
2023/12/14 11:45:06;;;;;;;;;;;;;;;;;;6248011;22;20337;-84
2023/12/14 11:47:32;;;;;;;;;;;;;;;;;;6247820;23;20211;-88
2023/12/14 11:49:57;;;;;;;;;;;;;;;;;;6248550;23;19907;-86
2023/12/14 11:52:22;;;;;;;;;;;;;;;;;;6247555;23;19915;-84
2023/12/14 11:54:48;;;;;;;;;;;;;;;;;;6248605;22;19922;-87
2023/12/14 11:57:13;;;;;;;;;;;;;;;;;;6248451;23;19908;-85
2023/12/14 11:59:38;;;;;;;;;;;;;;;;;;6221864;23;19961;-86
2023/12/14 12:02:04;;;;;;;;;;;;;;;;;;6247993;23;19903;-87
2023/12/14 12:04:30;;;;;;;;;;;;;;;;;;6248410;23;19907;-81
2023/12/14 12:07:02;;;;;;;;;;;;;;;;;;6248603;22;20209;-83
2023/12/14 12:09:37;;;;;;;;;;;;;;;;;;6248965;23;19915;-83
2023/12/14 12:12:05;;;;;;;;;;;;;;;;;;6248053;23;19908;-87
2023/12/14 12:14:30;;;;;;;;;;;;;;;;;;6248227;23;19982;-86
2023/12/14 12:16:56;;;;;;;;;;;;;;;;;;6248160;22;19915;-86
2023/12/14 12:19:21;;;;;;;;;;;;;;;;;;6248409;23;19919;-85
2023/12/14 12:21:47;;;;;;;;;;;;;;;;;;6248330;23;19914;-85
2023/12/14 12:24:12;;;;;;;;;;;;;;;;;;6247802;23;19914;-83
2023/12/14 12:26:37;;;;;;;;;;;;;;;;;;6248196;22;20003;-84
2023/12/14 12:29:05;;;;;;;;;;;;;;;;;;6247698;23;19918;-87
2023/12/14 12:31:31;;;;;;;;;;;;;;;;;;6248218;23;19914;-88
2023/12/14 12:33:56;;;;;;;;;;;;;;;;;;6248426;23;19903;-92
2023/12/14 12:36:22;;;;;;;;;;;;;;;;;;6248899;22;19914;-87
2023/12/14 12:38:47;;;;;;;;;;;;;;;;;;6248289;23;19926;-86
2023/12/14 12:41:13;;;;;;;;;;;;;;;;;;6222362;23;19958;-88
2023/12/14 12:43:38;;;;;;;;;;;;;;;;;;6230881;23;19932;-84
2023/12/14 12:46:03;;;;;;;;;;;;;;;;;;6258142;22;19908;-85
2023/12/14 18:25:14;;;;;;;;;;;;;;;;;;6208483;23;19984;-86
2023/12/14 18:27:41;;;;;;;;;;;;;;;;;;6217012;23;20239;-91
2023/12/14 18:30:09;;;;;;;;;;;;;;;;;;6191060;23;19912;-88
2023/12/14 18:32:35;;;;;;;;;;;;;;;;;;6191284;23;19908;-88
2023/12/14 18:35:01;;;;;;;;;;;;;;;;;;6221380;23;20306;-91
2023/12/14 18:37:26;;;;;;;;;;;;;;;;;;6176320;23;19919;-95
2023/12/14 18:39:52;;;;;;;;;;;;;;;;;;6194690;23;19946;-93
2023/12/14 18:42:17;;;;;;;;;;;;;;;;;;6192094;23;19907;-93
2023/12/14 18:44:42;;;;;;;;;;;;;;;;;;6192717;23;19908;-91
2023/12/14 18:47:08;;;;;;;;;;;;;;;;;;6220377;23;19908;-93
2023/12/14 18:49:33;;;;;;;;;;;;;;;;;;6193419;23;19908;-88
2023/12/14 18:51:59;;;;;;;;;;;;;;;;;;6218878;23;20239;-90
2023/12/14 18:54:26;;;;;;;;;;;;;;;;;;6219903;23;20030;-86
2023/12/14 18:56:52;;;;;;;;;;;;;;;;;;6218491;23;19908;-92
2023/12/14 18:59:19;;;;;;;;;;;;;;;;;;6192388;23;20364;-93
2023/12/14 19:01:47;;;;;;;;;;;;;;;;;;6194249;23;19938;-91
2023/12/14 19:04:12;;;;;;;;;;;;;;;;;;6220819;23;19908;-89
2023/12/14 19:06:43;;;;;;;;;;;;;;;;;;6219543;23;19915;-91
2023/12/14 19:09:10;;;;;;;;;;;;;;;;;;6192734;23;19915;-88
2023/12/14 19:11:36;;;;;;;;;;;;;;;;;;6196047;23;19903;-92
2023/12/14 19:14:01;;;;;;;;;;;;;;;;;;6195908;23;19907;-87
2023/12/14 19:16:33;;;;;;;;;;;;;;;;;;6198914;23;19942;-89
2023/12/14 19:19:01;;;;;;;;;;;;;;;;;;6229343;23;19908;-92
2023/12/14 19:21:27;;;;;;;;;;;;;;;;;;6195271;23;20019;-89
2023/12/14 19:23:52;;;;;;;;;;;;;;;;;;6196475;23;19911;-90
2023/12/14 19:26:19;;;;;;;;;;;;;;;;;;6223279;23;20399;-92
2023/12/14 19:28:44;;;;;;;;;;;;;;;;;;6195077;23;19915;-89
2023/12/14 19:31:11;;;;;;;;;;;;;;;;;;6196329;23;20319;-85
2023/12/14 19:33:38;;;;;;;;;;;;;;;;;;6222032;23;19931;-92
2023/12/14 19:36:11;;;;;;;;;;;;;;;;;;6194991;23;19907;-94
2023/12/14 19:38:36;;;;;;;;;;;;;;;;;;6193661;23;19914;-90
2023/12/14 19:41:02;;;;;;;;;;;;;;;;;;6220490;23;19908;-91
2023/12/14 19:43:27;;;;;;;;;;;;;;;;;;6220301;23;19931;-86
2023/12/14 19:45:52;;;;;;;;;;;;;;;;;;6193210;23;19931;-91
2023/12/14 19:48:18;;;;;;;;;;;;;;;;;;6225108;23;20243;-84
2023/12/14 19:53:12;;;;;;;;;;;;;;;;;;6260251;22;19916;-85
2023/12/14 19:55:41;;;;;;;;;;;;;;;;;;6254621;23;19912;-85
2023/12/14 19:58:07;;;;;;;;;;;;;;;;;;6260776;23;19908;-90
2023/12/14 20:00:34;;;;;;;;;;;;;;;;;;6253421;23;19914;-86
2023/12/14 20:03:00;;;;;;;;;;;;;;;;;;6230541;23;19911;-87
2023/12/14 20:05:27;;;;;;;;;;;;;;;;;;6224855;23;20280;-90
2023/12/14 20:07:52;;;;;;;;;;;;;;;;;;6224144;23;19907;-90
2023/12/14 20:10:19;;;;;;;;;;;;;;;;;;6224464;23;19907;-90
2023/12/14 20:12:50;;;;;;;;;;;;;;;;;;6227541;23;20408;-86
2023/12/14 20:15:18;;;;;;;;;;;;;;;;;;6206120;23;19919;-87
2023/12/14 20:17:45;;;;;;;;;;;;;;;;;;6229763;23;19908;-88
2023/12/14 20:20:11;;;;;;;;;;;;;;;;;;6229000;23;19908;-92
2023/12/14 20:22:37;;;;;;;;;;;;;;;;;;6255128;22;19907;-91
2023/12/14 20:25:03;;;;;;;;;;;;;;;;;;6227421;23;19939;-92
2023/12/14 20:27:30;;;;;;;;;;;;;;;;;;6229195;23;19915;-94
2023/12/14 20:30:03;;;;;;;;;;;;;;;;;;6226294;23;20323;-89
2023/12/14 20:32:28;;;;;;;;;;;;;;;;;;6204157;23;19943;-87
2023/12/14 20:34:55;;;;;;;;;;;;;;;;;;6256268;23;19915;-90
2023/12/14 20:37:21;;;;;;;;;;;;;;;;;;6256516;23;19908;-89
2023/12/14 20:39:50;;;;;;;;;;;;;;;;;;6255246;23;19915;-88
2023/12/14 20:42:19;;;;;;;;;;;;;;;;;;6227847;23;19908;-87
2023/12/14 20:44:45;;;;;;;;;;;;;;;;;;6230574;23;19911;-94
2023/12/14 20:47:11;;;;;;;;;;;;;;;;;;6226118;23;19915;-89
2023/12/14 20:49:37;;;;;;;;;;;;;;;;;;6228504;23;19907;-92
2023/12/14 20:52:06;;;;;;;;;;;;;;;;;;6237391;23;19912;-87
2023/12/14 20:54:32;;;;;;;;;;;;;;;;;;6254859;23;19911;-92
2023/12/14 20:56:57;;;;;;;;;;;;;;;;;;6228786;23;19903;-87
2023/12/14 20:59:26;;;;;;;;;;;;;;;;;;6230140;23;19907;-88
2023/12/14 21:01:58;;;;;;;;;;;;;;;;;;6229779;23;19903;-89
2023/12/14 21:04:23;;;;;;;;;;;;;;;;;;6222488;23;20250;-90
2023/12/14 21:06:48;;;;;;;;;;;;;;;;;;6223597;23;19907;-87
2023/12/14 21:09:14;;;;;;;;;;;;;;;;;;6223487;23;20246;-95
2023/12/14 21:11:39;;;;;;;;;;;;;;;;;;6223764;23;19908;-91
2023/12/14 21:14:05;;;;;;;;;;;;;;;;;;6248608;23;19911;-90
2023/12/14 21:16:30;;;;;;;;;;;;;;;;;;6221067;23;19914;-88
2023/12/14 21:18:55;;;;;;;;;;;;;;;;;;6221734;23;20315;-93
2023/12/14 21:21:21;;;;;;;;;;;;;;;;;;6221984;23;19908;-92
2023/12/14 21:23:46;;;;;;;;;;;;;;;;;;6221932;23;19911;-90
2023/12/14 21:26:15;;;;;;;;;;;;;;;;;;6221753;23;19914;-90
2023/12/14 21:28:41;;;;;;;;;;;;;;;;;;6221906;23;19970;-92
2023/12/14 21:31:06;;;;;;;;;;;;;;;;;;6248409;22;20311;-89
2023/12/14 21:33:32;;;;;;;;;;;;;;;;;;6220901;23;19912;-90
2023/12/14 21:35:57;;;;;;;;;;;;;;;;;;6221207;23;19908;-90
2023/12/14 21:38:23;;;;;;;;;;;;;;;;;;6220759;23;19907;-89
2023/12/14 21:40:48;;;;;;;;;;;;;;;;;;6247550;23;19914;-86
2023/12/14 21:43:14;;;;;;;;;;;;;;;;;;6220541;23;20077;-87
2023/12/14 21:45:40;;;;;;;;;;;;;;;;;;6247371;23;19907;-90
2023/12/14 21:48:05;;;;;;;;;;;;;;;;;;6247523;23;19986;-90
2023/12/14 21:50:31;;;;;;;;;;;;;;;;;;6220780;23;19915;-86
2023/12/14 21:52:56;;;;;;;;;;;;;;;;;;6220506;23;20281;-87
2023/12/14 21:55:21;;;;;;;;;;;;;;;;;;6247721;23;20231;-89
2023/12/14 21:57:47;;;;;;;;;;;;;;;;;;6247629;23;20215;-92
2023/12/14 22:00:12;;;;;;;;;;;;;;;;;;6221582;23;19908;-87
2023/12/14 22:02:38;;;;;;;;;;;;;;;;;;6222858;23;20338;-91
2023/12/14 22:05:03;;;;;;;;;;;;;;;;;;6251976;23;19910;-89
2023/12/14 22:07:29;;;;;;;;;;;;;;;;;;6253418;23;20274;-89
2023/12/14 22:09:54;;;;;;;;;;;;;;;;;;6238723;23;19918;-88
2023/12/14 22:12:20;;;;;;;;;;;;;;;;;;6267728;22;19927;-89
2023/12/14 22:14:45;;;;;;;;;;;;;;;;;;6239528;23;19935;-88
2023/12/14 22:17:10;;;;;;;;;;;;;;;;;;6266879;23;19907;-91
2023/12/14 22:19:36;;;;;;;;;;;;;;;;;;6239718;23;19907;-88
2023/12/14 22:22:04;;;;;;;;;;;;;;;;;;6268494;22;19907;-88
2023/12/14 22:24:31;;;;;;;;;;;;;;;;;;6255079;23;19915;-95
2023/12/14 22:27:01;;;;;;;;;;;;;;;;;;6263415;23;19908;-85
2023/12/14 22:29:46;;;;;;;;;;;;;;;;;;6262411;23;19978;-94
2023/12/14 22:32:11;;;;;;;;;;;;;;;;;;6227929;23;19914;-90
2023/12/14 22:34:37;;;;;;;;;;;;;;;;;;6260502;23;19914;-89
2023/12/14 22:37:02;;;;;;;;;;;;;;;;;;6230143;23;19908;-90
2023/12/14 22:39:28;;;;;;;;;;;;;;;;;;6255160;23;19961;-90
2023/12/14 22:41:53;;;;;;;;;;;;;;;;;;6251521;22;20242;-92
2023/12/14 22:44:19;;;;;;;;;;;;;;;;;;6248580;23;19907;-89
2023/12/14 22:46:44;;;;;;;;;;;;;;;;;;6222978;23;19919;-91
2023/12/14 22:49:09;;;;;;;;;;;;;;;;;;6225154;23;19934;-92
2023/12/14 22:51:35;;;;;;;;;;;;;;;;;;6250308;22;19978;-95
2023/12/14 22:54:01;;;;;;;;;;;;;;;;;;6223066;23;19912;-92
2023/12/14 22:56:27;;;;;;;;;;;;;;;;;;6224275;23;19915;-92
2023/12/14 22:58:53;;;;;;;;;;;;;;;;;;6223446;23;20262;-91
